sensor_id;sensor_type;location;lat;lon;timestamp;P1;durP1;ratioP1;P2;durP2;ratioP2
71963;SDS011;59834;52.124;5.422;2024-01-30T00:01:49;15.25;;;7.82;;
71963;SDS011;59834;52.124;5.422;2024-01-30T00:04:15;12.02;;;6.82;;
71963;SDS011;59834;52.124;5.422;2024-01-30T00:06:47;13.57;;;7.25;;
71963;SDS011;59834;52.124;5.422;2024-01-30T00:09:17;11.40;;;7.03;;
71963;SDS011;59834;52.124;5.422;2024-01-30T00:11:44;11.97;;;6.93;;
71963;SDS011;59834;52.124;5.422;2024-01-30T00:14:12;12.60;;;6.22;;
71963;SDS011;59834;52.124;5.422;2024-01-30T00:16:38;12.63;;;6.85;;
71963;SDS011;59834;52.124;5.422;2024-01-30T00:19:06;10.23;;;6.80;;
71963;SDS011;59834;52.124;5.422;2024-01-30T00:21:35;13.50;;;6.97;;
71963;SDS011;59834;52.124;5.422;2024-01-30T00:24:02;12.93;;;7.53;;
71963;SDS011;59834;52.124;5.422;2024-01-30T00:26:32;13.40;;;6.97;;
71963;SDS011;59834;52.124;5.422;2024-01-30T00:29:01;11.80;;;6.85;;
71963;SDS011;59834;52.124;5.422;2024-01-30T00:31:28;9.13;;;6.68;;
71963;SDS011;59834;52.124;5.422;2024-01-30T00:33:56;15.32;;;7.40;;
71963;SDS011;59834;52.124;5.422;2024-01-30T00:36:23;12.57;;;7.90;;
71963;SDS011;59834;52.124;5.422;2024-01-30T00:38:50;14.10;;;7.28;;
71963;SDS011;59834;52.124;5.422;2024-01-30T00:41:17;13.05;;;6.95;;
71963;SDS011;59834;52.124;5.422;2024-01-30T00:43:45;11.20;;;6.72;;
71963;SDS011;59834;52.124;5.422;2024-01-30T00:46:12;12.93;;;7.45;;
71963;SDS011;59834;52.124;5.422;2024-01-30T00:48:38;11.80;;;6.63;;
71963;SDS011;59834;52.124;5.422;2024-01-30T00:51:05;10.70;;;6.35;;
71963;SDS011;59834;52.124;5.422;2024-01-30T00:53:32;12.32;;;7.53;;
71963;SDS011;59834;52.124;5.422;2024-01-30T00:58:46;12.53;;;6.30;;
71963;SDS011;59834;52.124;5.422;2024-01-30T01:01:13;12.45;;;6.65;;
71963;SDS011;59834;52.124;5.422;2024-01-30T01:03:40;12.63;;;7.22;;
71963;SDS011;59834;52.124;5.422;2024-01-30T01:06:08;11.05;;;6.82;;
71963;SDS011;59834;52.124;5.422;2024-01-30T01:08:35;17.95;;;6.40;;
71963;SDS011;59834;52.124;5.422;2024-01-30T01:11:02;8.50;;;6.07;;
71963;SDS011;59834;52.124;5.422;2024-01-30T01:13:29;11.90;;;6.63;;
71963;SDS011;59834;52.124;5.422;2024-01-30T01:15:56;10.73;;;6.40;;
71963;SDS011;59834;52.124;5.422;2024-01-30T01:18:23;10.35;;;6.45;;
71963;SDS011;59834;52.124;5.422;2024-01-30T01:20:51;13.38;;;6.38;;
71963;SDS011;59834;52.124;5.422;2024-01-30T01:23:23;11.03;;;6.03;;
71963;SDS011;59834;52.124;5.422;2024-01-30T01:25:50;10.40;;;6.88;;
71963;SDS011;59834;52.124;5.422;2024-01-30T01:28:17;14.45;;;6.78;;
71963;SDS011;59834;52.124;5.422;2024-01-30T01:30:44;12.27;;;5.90;;
71963;SDS011;59834;52.124;5.422;2024-01-30T01:33:10;13.65;;;6.30;;
71963;SDS011;59834;52.124;5.422;2024-01-30T01:35:40;9.20;;;5.57;;
71963;SDS011;59834;52.124;5.422;2024-01-30T01:38:07;10.30;;;5.78;;
71963;SDS011;59834;52.124;5.422;2024-01-30T01:40:34;11.27;;;6.43;;
71963;SDS011;59834;52.124;5.422;2024-01-30T01:43:03;9.20;;;5.90;;
71963;SDS011;59834;52.124;5.422;2024-01-30T01:45:32;12.05;;;6.20;;
71963;SDS011;59834;52.124;5.422;2024-01-30T01:48:02;10.70;;;5.77;;
71963;SDS011;59834;52.124;5.422;2024-01-30T01:50:32;11.77;;;5.65;;
71963;SDS011;59834;52.124;5.422;2024-01-30T01:52:59;8.40;;;4.93;;
71963;SDS011;59834;52.124;5.422;2024-01-30T01:55:26;11.75;;;6.03;;
71963;SDS011;59834;52.124;5.422;2024-01-30T01:57:54;9.82;;;5.47;;
71963;SDS011;59834;52.124;5.422;2024-01-30T02:00:21;8.97;;;5.53;;
71963;SDS011;59834;52.124;5.422;2024-01-30T02:02:49;10.30;;;5.60;;
71963;SDS011;59834;52.124;5.422;2024-01-30T02:05:16;9.15;;;5.15;;
71963;SDS011;59834;52.124;5.422;2024-01-30T02:07:43;7.35;;;5.13;;
71963;SDS011;59834;52.124;5.422;2024-01-30T02:10:10;11.20;;;5.30;;
71963;SDS011;59834;52.124;5.422;2024-01-30T02:12:37;10.70;;;5.07;;
71963;SDS011;59834;52.124;5.422;2024-01-30T02:15:04;11.15;;;5.07;;
71963;SDS011;59834;52.124;5.422;2024-01-30T02:17:34;11.30;;;5.65;;
71963;SDS011;59834;52.124;5.422;2024-01-30T02:20:01;13.07;;;5.90;;
71963;SDS011;59834;52.124;5.422;2024-01-30T02:22:30;8.55;;;5.05;;
71963;SDS011;59834;52.124;5.422;2024-01-30T02:25:00;9.67;;;4.83;;
71963;SDS011;59834;52.124;5.422;2024-01-30T02:27:26;10.95;;;5.72;;
71963;SDS011;59834;52.124;5.422;2024-01-30T02:29:53;13.70;;;5.40;;
71963;SDS011;59834;52.124;5.422;2024-01-30T02:32:20;8.95;;;5.53;;
71963;SDS011;59834;52.124;5.422;2024-01-30T02:34:46;10.43;;;5.38;;
71963;SDS011;59834;52.124;5.422;2024-01-30T02:37:13;7.27;;;4.77;;
71963;SDS011;59834;52.124;5.422;2024-01-30T02:39:40;9.10;;;5.50;;
71963;SDS011;59834;52.124;5.422;2024-01-30T02:42:07;11.93;;;5.05;;
71963;SDS011;59834;52.124;5.422;2024-01-30T02:44:34;15.07;;;5.57;;
71963;SDS011;59834;52.124;5.422;2024-01-30T02:47:00;9.27;;;6.03;;
71963;SDS011;59834;52.124;5.422;2024-01-30T02:49:27;12.07;;;5.63;;
71963;SDS011;59834;52.124;5.422;2024-01-30T02:51:54;10.27;;;5.85;;
71963;SDS011;59834;52.124;5.422;2024-01-30T02:54:21;9.88;;;6.30;;
71963;SDS011;59834;52.124;5.422;2024-01-30T02:56:48;10.18;;;6.60;;
71963;SDS011;59834;52.124;5.422;2024-01-30T02:59:15;9.52;;;6.55;;
71963;SDS011;59834;52.124;5.422;2024-01-30T03:01:42;10.17;;;6.83;;
71963;SDS011;59834;52.124;5.422;2024-01-30T03:04:13;11.00;;;7.03;;
71963;SDS011;59834;52.124;5.422;2024-01-30T03:06:44;15.45;;;7.78;;
71963;SDS011;59834;52.124;5.422;2024-01-30T03:09:15;15.38;;;8.30;;
71963;SDS011;59834;52.124;5.422;2024-01-30T03:11:43;15.13;;;8.20;;
71963;SDS011;59834;52.124;5.422;2024-01-30T03:14:09;14.87;;;7.93;;
71963;SDS011;59834;52.124;5.422;2024-01-30T03:16:39;15.73;;;8.85;;
71963;SDS011;59834;52.124;5.422;2024-01-30T03:19:06;16.02;;;8.30;;
71963;SDS011;59834;52.124;5.422;2024-01-30T03:21:36;14.18;;;8.98;;
71963;SDS011;59834;52.124;5.422;2024-01-30T03:24:03;11.85;;;7.28;;
71963;SDS011;59834;52.124;5.422;2024-01-30T03:26:30;10.97;;;6.90;;
71963;SDS011;59834;52.124;5.422;2024-01-30T03:28:57;12.32;;;7.53;;
71963;SDS011;59834;52.124;5.422;2024-01-30T03:31:23;13.18;;;7.15;;
71963;SDS011;59834;52.124;5.422;2024-01-30T03:33:51;12.98;;;6.32;;
71963;SDS011;59834;52.124;5.422;2024-01-30T03:36:18;11.82;;;7.18;;
71963;SDS011;59834;52.124;5.422;2024-01-30T03:38:46;11.10;;;6.10;;
71963;SDS011;59834;52.124;5.422;2024-01-30T03:41:12;12.10;;;6.43;;
71963;SDS011;59834;52.124;5.422;2024-01-30T03:43:39;12.82;;;5.88;;
71963;SDS011;59834;52.124;5.422;2024-01-30T03:46:07;11.27;;;6.18;;
71963;SDS011;59834;52.124;5.422;2024-01-30T03:48:41;9.98;;;6.07;;
71963;SDS011;59834;52.124;5.422;2024-01-30T03:51:08;8.47;;;5.50;;
71963;SDS011;59834;52.124;5.422;2024-01-30T03:53:35;12.50;;;6.00;;
71963;SDS011;59834;52.124;5.422;2024-01-30T03:56:02;12.75;;;6.05;;
71963;SDS011;59834;52.124;5.422;2024-01-30T03:58:31;8.15;;;5.75;;
71963;SDS011;59834;52.124;5.422;2024-01-30T04:00:58;7.47;;;4.63;;
71963;SDS011;59834;52.124;5.422;2024-01-30T04:03:27;11.03;;;4.43;;
71963;SDS011;59834;52.124;5.422;2024-01-30T04:05:54;6.70;;;4.30;;
71963;SDS011;59834;52.124;5.422;2024-01-30T04:08:20;7.35;;;4.57;;
71963;SDS011;59834;52.124;5.422;2024-01-30T04:10:47;10.18;;;4.78;;
71963;SDS011;59834;52.124;5.422;2024-01-30T04:13:14;8.02;;;4.75;;
71963;SDS011;59834;52.124;5.422;2024-01-30T04:15:41;7.67;;;4.13;;
71963;SDS011;59834;52.124;5.422;2024-01-30T04:18:08;6.30;;;4.53;;
71963;SDS011;59834;52.124;5.422;2024-01-30T04:20:35;7.63;;;4.22;;
71963;SDS011;59834;52.124;5.422;2024-01-30T04:23:04;7.72;;;4.43;;
71963;SDS011;59834;52.124;5.422;2024-01-30T04:25:31;6.93;;;4.70;;
71963;SDS011;59834;52.124;5.422;2024-01-30T04:28:00;8.10;;;4.23;;
71963;SDS011;59834;52.124;5.422;2024-01-30T04:30:27;8.63;;;4.25;;
71963;SDS011;59834;52.124;5.422;2024-01-30T04:35:47;7.97;;;4.28;;
71963;SDS011;59834;52.124;5.422;2024-01-30T04:38:22;5.30;;;4.00;;
71963;SDS011;59834;52.124;5.422;2024-01-30T04:40:51;8.33;;;3.33;;
71963;SDS011;59834;52.124;5.422;2024-01-30T04:43:42;8.30;;;4.18;;
71963;SDS011;59834;52.124;5.422;2024-01-30T04:46:09;7.43;;;4.60;;
71963;SDS011;59834;52.124;5.422;2024-01-30T04:48:36;5.63;;;3.90;;
71963;SDS011;59834;52.124;5.422;2024-01-30T04:51:05;8.35;;;4.15;;
71963;SDS011;59834;52.124;5.422;2024-01-30T04:53:35;7.53;;;4.20;;
71963;SDS011;59834;52.124;5.422;2024-01-30T04:56:01;10.45;;;4.43;;
71963;SDS011;59834;52.124;5.422;2024-01-30T04:58:28;6.07;;;4.18;;
71963;SDS011;59834;52.124;5.422;2024-01-30T05:00:58;7.28;;;3.88;;
71963;SDS011;59834;52.124;5.422;2024-01-30T05:03:24;6.80;;;4.15;;
71963;SDS011;59834;52.124;5.422;2024-01-30T05:05:51;6.63;;;3.83;;
71963;SDS011;59834;52.124;5.422;2024-01-30T05:08:18;6.78;;;3.67;;
71963;SDS011;59834;52.124;5.422;2024-01-30T05:10:45;7.65;;;4.40;;
71963;SDS011;59834;52.124;5.422;2024-01-30T05:13:12;9.10;;;4.78;;
71963;SDS011;59834;52.124;5.422;2024-01-30T05:15:42;9.93;;;4.20;;
71963;SDS011;59834;52.124;5.422;2024-01-30T05:18:09;7.97;;;4.53;;
71963;SDS011;59834;52.124;5.422;2024-01-30T05:20:36;7.75;;;4.22;;
71963;SDS011;59834;52.124;5.422;2024-01-30T05:23:02;8.73;;;3.88;;
71963;SDS011;59834;52.124;5.422;2024-01-30T05:25:29;7.78;;;4.07;;
71963;SDS011;59834;52.124;5.422;2024-01-30T05:27:56;5.43;;;3.58;;
71963;SDS011;59834;52.124;5.422;2024-01-30T05:30:23;8.17;;;4.20;;
71963;SDS011;59834;52.124;5.422;2024-01-30T05:32:49;6.80;;;4.15;;
71963;SDS011;59834;52.124;5.422;2024-01-30T05:35:17;7.30;;;4.03;;
71963;SDS011;59834;52.124;5.422;2024-01-30T05:37:43;6.40;;;4.13;;
71963;SDS011;59834;52.124;5.422;2024-01-30T05:40:10;6.15;;;4.05;;
71963;SDS011;59834;52.124;5.422;2024-01-30T05:42:37;9.50;;;4.60;;
71963;SDS011;59834;52.124;5.422;2024-01-30T05:45:04;7.82;;;4.15;;
71963;SDS011;59834;52.124;5.422;2024-01-30T05:47:31;10.57;;;4.45;;
71963;SDS011;59834;52.124;5.422;2024-01-30T05:49:58;8.35;;;4.45;;
71963;SDS011;59834;52.124;5.422;2024-01-30T05:52:25;8.38;;;4.55;;
71963;SDS011;59834;52.124;5.422;2024-01-30T05:54:51;7.83;;;4.40;;
71963;SDS011;59834;52.124;5.422;2024-01-30T05:57:18;8.00;;;4.10;;
71963;SDS011;59834;52.124;5.422;2024-01-30T05:59:45;9.43;;;4.28;;
71963;SDS011;59834;52.124;5.422;2024-01-30T06:02:13;8.15;;;4.28;;
71963;SDS011;59834;52.124;5.422;2024-01-30T06:04:40;11.25;;;4.47;;
71963;SDS011;59834;52.124;5.422;2024-01-30T06:07:07;6.57;;;3.80;;
71963;SDS011;59834;52.124;5.422;2024-01-30T06:09:37;7.05;;;3.85;;
71963;SDS011;59834;52.124;5.422;2024-01-30T06:12:05;8.75;;;4.03;;
71963;SDS011;59834;52.124;5.422;2024-01-30T06:14:34;8.23;;;3.88;;
71963;SDS011;59834;52.124;5.422;2024-01-30T06:17:00;7.85;;;4.15;;
71963;SDS011;59834;52.124;5.422;2024-01-30T06:19:29;7.13;;;4.33;;
71963;SDS011;59834;52.124;5.422;2024-01-30T06:21:56;5.22;;;3.53;;
71963;SDS011;59834;52.124;5.422;2024-01-30T06:24:23;9.32;;;4.07;;
71963;SDS011;59834;52.124;5.422;2024-01-30T06:26:49;8.43;;;4.15;;
71963;SDS011;59834;52.124;5.422;2024-01-30T06:29:16;6.07;;;4.47;;
71963;SDS011;59834;52.124;5.422;2024-01-30T06:31:46;5.63;;;3.60;;
71963;SDS011;59834;52.124;5.422;2024-01-30T06:34:13;11.10;;;4.55;;
71963;SDS011;59834;52.124;5.422;2024-01-30T06:36:40;8.48;;;3.75;;
71963;SDS011;59834;52.124;5.422;2024-01-30T06:39:07;6.13;;;3.80;;
71963;SDS011;59834;52.124;5.422;2024-01-30T06:41:34;7.80;;;4.38;;
71963;SDS011;59834;52.124;5.422;2024-01-30T06:44:04;14.47;;;4.37;;
71963;SDS011;59834;52.124;5.422;2024-01-30T06:46:34;10.05;;;4.05;;
71963;SDS011;59834;52.124;5.422;2024-01-30T06:49:02;6.10;;;4.68;;
71963;SDS011;59834;52.124;5.422;2024-01-30T06:51:28;10.02;;;4.50;;
71963;SDS011;59834;52.124;5.422;2024-01-30T06:53:56;9.38;;;3.63;;
71963;SDS011;59834;52.124;5.422;2024-01-30T06:56:23;7.60;;;3.67;;
71963;SDS011;59834;52.124;5.422;2024-01-30T06:58:51;9.38;;;4.25;;
71963;SDS011;59834;52.124;5.422;2024-01-30T07:01:19;5.45;;;3.67;;
71963;SDS011;59834;52.124;5.422;2024-01-30T07:03:48;8.88;;;3.85;;
71963;SDS011;59834;52.124;5.422;2024-01-30T07:06:22;6.75;;;4.22;;
71963;SDS011;59834;52.124;5.422;2024-01-30T07:08:49;7.33;;;4.10;;
71963;SDS011;59834;52.124;5.422;2024-01-30T07:11:19;9.68;;;4.20;;
71963;SDS011;59834;52.124;5.422;2024-01-30T07:13:51;7.85;;;4.13;;
71963;SDS011;59834;52.124;5.422;2024-01-30T07:16:19;8.38;;;3.55;;
71963;SDS011;59834;52.124;5.422;2024-01-30T07:18:49;5.53;;;3.60;;
71963;SDS011;59834;52.124;5.422;2024-01-30T07:21:16;13.93;;;4.13;;
71963;SDS011;59834;52.124;5.422;2024-01-30T07:23:43;6.20;;;4.22;;
71963;SDS011;59834;52.124;5.422;2024-01-30T07:26:10;6.40;;;3.67;;
71963;SDS011;59834;52.124;5.422;2024-01-30T07:28:37;7.22;;;3.60;;
71963;SDS011;59834;52.124;5.422;2024-01-30T07:31:04;5.25;;;3.70;;
71963;SDS011;59834;52.124;5.422;2024-01-30T07:33:32;8.87;;;4.93;;
71963;SDS011;59834;52.124;5.422;2024-01-30T07:35:59;6.82;;;3.88;;
71963;SDS011;59834;52.124;5.422;2024-01-30T07:38:26;5.60;;;3.80;;
71963;SDS011;59834;52.124;5.422;2024-01-30T07:40:53;12.20;;;3.90;;
71963;SDS011;59834;52.124;5.422;2024-01-30T07:43:20;5.53;;;3.75;;
71963;SDS011;59834;52.124;5.422;2024-01-30T07:45:49;7.70;;;3.83;;
71963;SDS011;59834;52.124;5.422;2024-01-30T07:48:16;6.32;;;3.85;;
71963;SDS011;59834;52.124;5.422;2024-01-30T07:50:42;8.70;;;3.60;;
71963;SDS011;59834;52.124;5.422;2024-01-30T07:53:16;6.15;;;3.38;;
71963;SDS011;59834;52.124;5.422;2024-01-30T07:55:49;9.18;;;4.13;;
71963;SDS011;59834;52.124;5.422;2024-01-30T07:58:48;11.67;;;4.17;;
71963;SDS011;59834;52.124;5.422;2024-01-30T08:01:49;9.02;;;4.45;;
71963;SDS011;59834;52.124;5.422;2024-01-30T08:04:16;8.43;;;3.88;;
71963;SDS011;59834;52.124;5.422;2024-01-30T08:06:50;6.43;;;4.18;;
71963;SDS011;59834;52.124;5.422;2024-01-30T08:09:19;6.47;;;4.20;;
71963;SDS011;59834;52.124;5.422;2024-01-30T08:12:03;7.37;;;3.77;;
71963;SDS011;59834;52.124;5.422;2024-01-30T08:14:43;8.13;;;4.00;;
71963;SDS011;59834;52.124;5.422;2024-01-30T08:17:19;10.88;;;4.20;;
71963;SDS011;59834;52.124;5.422;2024-01-30T08:20:05;9.13;;;3.40;;
71963;SDS011;59834;52.124;5.422;2024-01-30T08:22:41;8.20;;;3.83;;
71963;SDS011;59834;52.124;5.422;2024-01-30T08:25:18;10.03;;;3.70;;
71963;SDS011;59834;52.124;5.422;2024-01-30T08:27:52;6.38;;;4.10;;
71963;SDS011;59834;52.124;5.422;2024-01-30T08:33:21;11.93;;;4.05;;
71963;SDS011;59834;52.124;5.422;2024-01-30T08:35:56;8.55;;;3.70;;
71963;SDS011;59834;52.124;5.422;2024-01-30T08:38:31;7.70;;;4.30;;
71963;SDS011;59834;52.124;5.422;2024-01-30T08:41:04;7.57;;;4.25;;
71963;SDS011;59834;52.124;5.422;2024-01-30T08:43:36;12.77;;;3.90;;
71963;SDS011;59834;52.124;5.422;2024-01-30T08:46:02;12.63;;;4.70;;
71963;SDS011;59834;52.124;5.422;2024-01-30T08:48:29;10.00;;;4.43;;
71963;SDS011;59834;52.124;5.422;2024-01-30T08:50:57;12.47;;;4.00;;
71963;SDS011;59834;52.124;5.422;2024-01-30T08:53:26;6.32;;;3.63;;
71963;SDS011;59834;52.124;5.422;2024-01-30T08:55:59;12.85;;;4.03;;
71963;SDS011;59834;52.124;5.422;2024-01-30T08:58:27;10.95;;;4.05;;
71963;SDS011;59834;52.124;5.422;2024-01-30T09:01:08;7.07;;;3.70;;
71963;SDS011;59834;52.124;5.422;2024-01-30T09:03:42;14.10;;;4.13;;
71963;SDS011;59834;52.124;5.422;2024-01-30T09:06:18;6.38;;;4.18;;
71963;SDS011;59834;52.124;5.422;2024-01-30T09:12:27;8.95;;;4.05;;
71963;SDS011;59834;52.124;5.422;2024-01-30T09:14:56;12.77;;;5.32;;
71963;SDS011;59834;52.124;5.422;2024-01-30T09:17:33;17.07;;;4.23;;
71963;SDS011;59834;52.124;5.422;2024-01-30T09:20:00;10.25;;;3.90;;
71963;SDS011;59834;52.124;5.422;2024-01-30T09:22:30;10.40;;;3.80;;
71963;SDS011;59834;52.124;5.422;2024-01-30T09:25:00;10.55;;;3.75;;
71963;SDS011;59834;52.124;5.422;2024-01-30T09:27:31;9.73;;;3.75;;
71963;SDS011;59834;52.124;5.422;2024-01-30T09:30:00;13.33;;;4.10;;
71963;SDS011;59834;52.124;5.422;2024-01-30T09:32:27;9.45;;;4.32;;
71963;SDS011;59834;52.124;5.422;2024-01-30T09:34:54;8.82;;;3.97;;
71963;SDS011;59834;52.124;5.422;2024-01-30T09:37:29;7.13;;;3.92;;
71963;SDS011;59834;52.124;5.422;2024-01-30T09:40:00;9.60;;;4.13;;
71963;SDS011;59834;52.124;5.422;2024-01-30T09:45:04;6.60;;;3.75;;
71963;SDS011;59834;52.124;5.422;2024-01-30T09:47:32;8.00;;;4.28;;
71963;SDS011;59834;52.124;5.422;2024-01-30T10:01:03;8.50;;;3.83;;
71963;SDS011;59834;52.124;5.422;2024-01-30T10:03:34;6.03;;;3.63;;
71963;SDS011;59834;52.124;5.422;2024-01-30T10:06:21;7.78;;;3.60;;
71963;SDS011;59834;52.124;5.422;2024-01-30T10:08:58;13.55;;;3.97;;
71963;SDS011;59834;52.124;5.422;2024-01-30T10:11:39;8.53;;;4.07;;
71963;SDS011;59834;52.124;5.422;2024-01-30T10:14:15;11.13;;;3.85;;
71963;SDS011;59834;52.124;5.422;2024-01-30T10:16:53;6.57;;;3.70;;
71963;SDS011;59834;52.124;5.422;2024-01-30T10:19:20;9.82;;;4.25;;
71963;SDS011;59834;52.124;5.422;2024-01-30T10:22:00;8.70;;;4.20;;
71963;SDS011;59834;52.124;5.422;2024-01-30T10:24:41;6.70;;;3.93;;
71963;SDS011;59834;52.124;5.422;2024-01-30T10:27:31;7.28;;;3.33;;
71963;SDS011;59834;52.124;5.422;2024-01-30T10:30:07;8.27;;;3.88;;
71963;SDS011;59834;52.124;5.422;2024-01-30T10:35:43;7.55;;;3.85;;
71963;SDS011;59834;52.124;5.422;2024-01-30T10:38:53;8.97;;;4.43;;
71963;SDS011;59834;52.124;5.422;2024-01-30T10:41:38;5.85;;;4.00;;
71963;SDS011;59834;52.124;5.422;2024-01-30T10:44:23;8.85;;;4.15;;
71963;SDS011;59834;52.124;5.422;2024-01-30T10:46:54;9.02;;;4.10;;
71963;SDS011;59834;52.124;5.422;2024-01-30T10:49:29;5.45;;;3.65;;
71963;SDS011;59834;52.124;5.422;2024-01-30T10:52:05;7.60;;;3.40;;
71963;SDS011;59834;52.124;5.422;2024-01-30T10:54:34;8.48;;;4.30;;
71963;SDS011;59834;52.124;5.422;2024-01-30T10:57:15;8.02;;;3.40;;
71963;SDS011;59834;52.124;5.422;2024-01-30T10:59:51;9.18;;;3.65;;
71963;SDS011;59834;52.124;5.422;2024-01-30T11:02:40;15.50;;;3.08;;
71963;SDS011;59834;52.124;5.422;2024-01-30T11:05:40;13.87;;;3.00;;
71963;SDS011;59834;52.124;5.422;2024-01-30T11:08:31;14.63;;;3.13;;
71963;SDS011;59834;52.124;5.422;2024-01-30T11:14:40;4.88;;;3.00;;
71963;SDS011;59834;52.124;5.422;2024-01-30T11:17:09;9.52;;;3.00;;
71963;SDS011;59834;52.124;5.422;2024-01-30T11:19:41;7.93;;;2.67;;
71963;SDS011;59834;52.124;5.422;2024-01-30T11:23:01;6.55;;;2.92;;
71963;SDS011;59834;52.124;5.422;2024-01-30T11:25:36;5.93;;;3.53;;
71963;SDS011;59834;52.124;5.422;2024-01-30T11:28:21;6.90;;;2.65;;
71963;SDS011;59834;52.124;5.422;2024-01-30T11:30:48;5.90;;;2.22;;
71963;SDS011;59834;52.124;5.422;2024-01-30T11:33:30;5.50;;;2.87;;
71963;SDS011;59834;52.124;5.422;2024-01-30T11:43:22;2.90;;;0.80;;
71963;SDS011;59834;52.124;5.422;2024-01-30T11:45:53;3.42;;;0.93;;
71963;SDS011;59834;52.124;5.422;2024-01-30T11:48:36;4.33;;;0.70;;
71963;SDS011;59834;52.124;5.422;2024-01-30T11:51:11;5.93;;;0.65;;
71963;SDS011;59834;52.124;5.422;2024-01-30T11:53:53;4.50;;;0.40;;
71963;SDS011;59834;52.124;5.422;2024-01-30T11:56:23;6.05;;;0.57;;
71963;SDS011;59834;52.124;5.422;2024-01-30T11:58:54;2.47;;;0.25;;
71963;SDS011;59834;52.124;5.422;2024-01-30T12:01:29;1.67;;;0.30;;
71963;SDS011;59834;52.124;5.422;2024-01-30T12:04:04;5.60;;;0.47;;
71963;SDS011;59834;52.124;5.422;2024-01-30T12:06:51;6.60;;;0.30;;
71963;SDS011;59834;52.124;5.422;2024-01-30T12:09:29;1.95;;;0.55;;
71963;SDS011;59834;52.124;5.422;2024-01-30T12:11:56;2.67;;;0.20;;
71963;SDS011;59834;52.124;5.422;2024-01-30T12:14:26;1.40;;;0.20;;
71963;SDS011;59834;52.124;5.422;2024-01-30T12:17:10;0.73;;;0.10;;
71963;SDS011;59834;52.124;5.422;2024-01-30T12:26:09;1.88;;;0.30;;
71963;SDS011;59834;52.124;5.422;2024-01-30T12:28:54;3.20;;;0.40;;
71963;SDS011;59834;52.124;5.422;2024-01-30T12:35:10;2.92;;;0.60;;
71963;SDS011;59834;52.124;5.422;2024-01-30T12:37:48;1.75;;;0.50;;
71963;SDS011;59834;52.124;5.422;2024-01-30T12:40:28;1.98;;;0.50;;
71963;SDS011;59834;52.124;5.422;2024-01-30T12:43:20;8.47;;;0.43;;
71963;SDS011;59834;52.124;5.422;2024-01-30T12:48:56;7.63;;;0.50;;
71963;SDS011;59834;52.124;5.422;2024-01-30T12:51:39;2.67;;;0.38;;
71963;SDS011;59834;52.124;5.422;2024-01-30T12:54:22;2.28;;;0.40;;
71963;SDS011;59834;52.124;5.422;2024-01-30T13:00:39;7.22;;;0.70;;
71963;SDS011;59834;52.124;5.422;2024-01-30T13:10:44;4.25;;;0.57;;
71963;SDS011;59834;52.124;5.422;2024-01-30T13:13:19;1.10;;;0.30;;
71963;SDS011;59834;52.124;5.422;2024-01-30T13:16:02;2.80;;;0.22;;
71963;SDS011;59834;52.124;5.422;2024-01-30T13:18:37;4.57;;;0.40;;
71963;SDS011;59834;52.124;5.422;2024-01-30T13:21:18;1.92;;;0.38;;
71963;SDS011;59834;52.124;5.422;2024-01-30T13:23:47;2.70;;;0.50;;
71963;SDS011;59834;52.124;5.422;2024-01-30T13:26:18;3.13;;;0.20;;
71963;SDS011;59834;52.124;5.422;2024-01-30T13:29:01;2.47;;;0.32;;
71963;SDS011;59834;52.124;5.422;2024-01-30T13:31:31;2.25;;;0.10;;
71963;SDS011;59834;52.124;5.422;2024-01-30T13:34:10;2.65;;;0.10;;
71963;SDS011;59834;52.124;5.422;2024-01-30T13:36:42;3.05;;;0.10;;
71963;SDS011;59834;52.124;5.422;2024-01-30T13:39:12;5.00;;;0.40;;
71963;SDS011;59834;52.124;5.422;2024-01-30T13:41:50;1.00;;;0.10;;
71963;SDS011;59834;52.124;5.422;2024-01-30T13:44:17;4.93;;;0.20;;
71963;SDS011;59834;52.124;5.422;2024-01-30T13:46:44;2.35;;;0.10;;
71963;SDS011;59834;52.124;5.422;2024-01-30T13:49:13;0.70;;;0.10;;
71963;SDS011;59834;52.124;5.422;2024-01-30T13:51:40;2.20;;;0.63;;
71963;SDS011;59834;52.124;5.422;2024-01-30T13:54:10;0.63;;;0.00;;
71963;SDS011;59834;52.124;5.422;2024-01-30T14:03:29;2.10;;;0.10;;
71963;SDS011;59834;52.124;5.422;2024-01-30T14:09:33;3.13;;;0.20;;
71963;SDS011;59834;52.124;5.422;2024-01-30T14:12:08;1.67;;;0.10;;
71963;SDS011;59834;52.124;5.422;2024-01-30T14:14:45;2.45;;;0.32;;
71963;SDS011;59834;52.124;5.422;2024-01-30T14:17:20;0.90;;;0.10;;
71963;SDS011;59834;52.124;5.422;2024-01-30T14:20:07;3.33;;;0.10;;
71963;SDS011;59834;52.124;5.422;2024-01-30T14:26:15;1.67;;;0.10;;
71963;SDS011;59834;52.124;5.422;2024-01-30T14:28:47;2.63;;;0.20;;
71963;SDS011;59834;52.124;5.422;2024-01-30T14:31:20;3.10;;;0.20;;
71963;SDS011;59834;52.124;5.422;2024-01-30T14:37:29;1.27;;;0.20;;
71963;SDS011;59834;52.124;5.422;2024-01-30T14:52:01;3.90;;;0.23;;
71963;SDS011;59834;52.124;5.422;2024-01-30T14:54:54;3.42;;;0.20;;
71963;SDS011;59834;52.124;5.422;2024-01-30T14:57:23;6.15;;;0.30;;
71963;SDS011;59834;52.124;5.422;2024-01-30T14:59:56;0.93;;;0.20;;
71963;SDS011;59834;52.124;5.422;2024-01-30T15:02:52;3.60;;;0.20;;
71963;SDS011;59834;52.124;5.422;2024-01-30T15:05:30;4.97;;;0.30;;
71963;SDS011;59834;52.124;5.422;2024-01-30T15:18:48;3.42;;;1.50;;
71963;SDS011;59834;52.124;5.422;2024-01-30T15:21:23;3.23;;;1.30;;
71963;SDS011;59834;52.124;5.422;2024-01-30T15:23:57;5.35;;;1.50;;
71963;SDS011;59834;52.124;5.422;2024-01-30T15:36:29;5.27;;;1.23;;
71963;SDS011;59834;52.124;5.422;2024-01-30T15:39:02;2.08;;;1.08;;
71963;SDS011;59834;52.124;5.422;2024-01-30T15:41:32;2.15;;;1.48;;
71963;SDS011;59834;52.124;5.422;2024-01-30T15:44:01;2.95;;;1.35;;
71963;SDS011;59834;52.124;5.422;2024-01-30T15:46:36;3.00;;;1.88;;
71963;SDS011;59834;52.124;5.422;2024-01-30T15:49:07;5.23;;;1.77;;
71963;SDS011;59834;52.124;5.422;2024-01-30T15:51:48;4.22;;;1.70;;
71963;SDS011;59834;52.124;5.422;2024-01-30T15:54:15;2.47;;;1.58;;
71963;SDS011;59834;52.124;5.422;2024-01-30T15:56:57;4.30;;;1.95;;
71963;SDS011;59834;52.124;5.422;2024-01-30T15:59:27;3.08;;;1.88;;
71963;SDS011;59834;52.124;5.422;2024-01-30T16:01:56;3.13;;;2.17;;
71963;SDS011;59834;52.124;5.422;2024-01-30T16:10:30;3.47;;;1.83;;
71963;SDS011;59834;52.124;5.422;2024-01-30T16:16:04;4.27;;;1.80;;
71963;SDS011;59834;52.124;5.422;2024-01-30T16:27:27;4.63;;;1.95;;
71963;SDS011;59834;52.124;5.422;2024-01-30T16:30:04;6.13;;;1.73;;
71963;SDS011;59834;52.124;5.422;2024-01-30T16:39:08;3.75;;;1.95;;
71963;SDS011;59834;52.124;5.422;2024-01-30T16:51:02;3.55;;;1.75;;
71963;SDS011;59834;52.124;5.422;2024-01-30T16:53:52;4.28;;;1.85;;
71963;SDS011;59834;52.124;5.422;2024-01-30T16:56:21;2.70;;;1.70;;
71963;SDS011;59834;52.124;5.422;2024-01-30T16:58:47;1.83;;;1.30;;
71963;SDS011;59834;52.124;5.422;2024-01-30T17:01:14;2.65;;;1.13;;
71963;SDS011;59834;52.124;5.422;2024-01-30T17:03:41;2.72;;;1.08;;
71963;SDS011;59834;52.124;5.422;2024-01-30T17:06:28;2.10;;;0.70;;
71963;SDS011;59834;52.124;5.422;2024-01-30T17:09:05;1.70;;;0.60;;
71963;SDS011;59834;52.124;5.422;2024-01-30T17:11:58;5.00;;;1.00;;
71963;SDS011;59834;52.124;5.422;2024-01-30T17:14:44;4.32;;;0.75;;
71963;SDS011;59834;52.124;5.422;2024-01-30T17:20:10;2.85;;;0.43;;
71963;SDS011;59834;52.124;5.422;2024-01-30T17:22:40;3.35;;;0.28;;
71963;SDS011;59834;52.124;5.422;2024-01-30T17:25:11;2.87;;;0.20;;
71963;SDS011;59834;52.124;5.422;2024-01-30T17:27:40;4.03;;;0.30;;
71963;SDS011;59834;52.124;5.422;2024-01-30T17:30:38;1.05;;;0.20;;
71963;SDS011;59834;52.124;5.422;2024-01-30T17:33:05;1.55;;;0.15;;
71963;SDS011;59834;52.124;5.422;2024-01-30T17:35:39;4.25;;;0.35;;
71963;SDS011;59834;52.124;5.422;2024-01-30T17:38:15;1.80;;;0.50;;
71963;SDS011;59834;52.124;5.422;2024-01-30T17:40:46;0.77;;;0.20;;